Time;durP1;ratioP1;P1;durP2;ratioP2;P2;SDS_P1;SDS_P2;PMS_P1;PMS_P2;Temp;Humidity;BMP_temperature;BMP_pressure;BME280_temperature;BME280_humidity;BME280_pressure;Samples;Min_cycle;Max_cycle;Signal;HPM_P1;HPM_P2
2022/07/17 00:01:15;;;;;;;4.25;2.55;;;;;14.80;95040.00;;;;7397101;19;20501;-76
2022/07/17 00:03:49;;;;;;;3.05;2.22;;;;;14.70;95028.00;;;;7399371;19;20143;-76
2022/07/17 00:06:17;;;;;;;2.30;2.10;;;;;14.60;95037.00;;;;7397155;19;20149;-76
2022/07/17 00:08:46;;;;;;;2.53;2.00;;;;;14.50;95038.00;;;;7398286;19;20574;-76
2022/07/17 00:11:20;;;;;;;3.50;2.00;;;;;14.50;95032.00;;;;7398553;19;20479;-76
2022/07/17 00:13:48;;;;;;;3.72;2.70;;;;;14.50;95025.00;;;;7397401;19;20143;-76
2022/07/17 00:16:16;;;;;;;3.65;2.40;;;;;14.40;95023.00;;;;7399681;19;20638;-76
2022/07/17 00:18:52;;;;;;;4.38;2.47;;;;;14.50;95023.00;;;;7396778;19;20195;-76
2022/07/17 00:21:20;;;;;;;2.38;2.17;;;;;14.60;95025.00;;;;7395485;19;20172;-76
2022/07/17 00:23:48;;;;;;;3.75;2.33;;;;;14.60;95031.00;;;;7397173;19;20144;-76
2022/07/17 00:26:23;;;;;;;6.57;3.28;;;;;14.40;95022.00;;;;7393337;19;20591;-76
2022/07/17 00:28:50;;;;;;;4.88;2.60;;;;;14.30;95020.00;;;;7397477;19;20197;-77
2022/07/17 00:31:18;;;;;;;6.05;2.88;;;;;14.30;95020.00;;;;7395812;19;20168;-76
2022/07/17 00:33:52;;;;;;;3.58;2.42;;;;;14.40;95021.00;;;;7398669;19;20123;-76
2022/07/17 00:36:20;;;;;;;2.47;2.10;;;;;14.40;95020.00;;;;7396423;19;20128;-76
2022/07/17 00:38:47;;;;;;;2.65;2.33;;;;;14.40;95015.00;;;;7394920;19;20607;-76
2022/07/17 00:41:22;;;;;;;2.65;2.10;;;;;14.40;95018.00;;;;7395391;19;20960;-77
2022/07/17 00:43:56;;;;;;;2.50;2.30;;;;;14.30;95022.00;;;;7394623;19;20184;-76
2022/07/17 00:46:38;;;;;;;3.63;2.20;;;;;14.20;95025.00;;;;7392739;19;20158;-76
2022/07/17 00:49:07;;;;;;;2.85;2.00;;;;;14.20;95029.00;;;;7396933;19;20139;-76
2022/07/17 00:51:40;;;;;;;2.50;2.30;;;;;14.10;95026.00;;;;7395580;19;20132;-77
2022/07/17 00:54:11;;;;;;;2.60;2.38;;;;;14.00;95019.00;;;;7396836;19;20136;-76
2022/07/17 00:56:42;;;;;;;3.13;2.35;;;;;13.90;95024.00;;;;7394764;19;20148;-76
2022/07/17 00:59:17;;;;;;;3.55;2.28;;;;;14.00;95018.00;;;;7397496;19;20545;-76
2022/07/17 01:01:44;;;;;;;2.40;2.20;;;;;14.20;95019.00;;;;7391576;19;20167;-76
2022/07/17 01:04:13;;;;;;;3.65;2.40;;;;;14.10;95022.00;;;;7396651;19;20466;-76
2022/07/17 01:06:46;;;;;;;2.47;2.28;;;;;14.20;95021.00;;;;7394568;19;20131;-76
2022/07/17 01:09:14;;;;;;;3.85;2.33;;;;;14.10;95022.00;;;;7395551;19;20141;-77
2022/07/17 01:11:42;;;;;;;3.28;2.70;;;;;14.30;95017.00;;;;7394363;19;20484;-76
2022/07/17 01:14:17;;;;;;;4.07;2.40;;;;;14.20;95016.00;;;;7392862;19;20559;-77
2022/07/17 01:16:46;;;;;;;2.55;2.28;;;;;14.30;95006.00;;;;7396683;19;20132;-77
2022/07/17 01:19:13;;;;;;;4.18;2.40;;;;;14.30;95019.00;;;;7395884;19;20133;-77
2022/07/17 01:21:50;;;;;;;2.53;2.33;;;;;14.40;95019.00;;;;7397499;19;20187;-76
2022/07/17 01:24:19;;;;;;;3.55;2.17;;;;;14.30;95024.00;;;;7395990;19;20209;-76
2022/07/17 01:26:49;;;;;;;5.82;2.20;;;;;14.10;95018.00;;;;7393640;19;20191;-76
2022/07/17 01:29:24;;;;;;;4.35;2.28;;;;;14.00;95011.00;;;;7396347;19;20468;-77
2022/07/17 01:31:52;;;;;;;4.50;2.10;;;;;13.90;95018.00;;;;7393633;19;20145;-77
2022/07/17 01:34:19;;;;;;;3.97;2.00;;;;;14.00;95014.00;;;;7396535;19;20598;-76
2022/07/17 01:36:54;;;;;;;2.20;2.10;;;;;13.90;95013.00;;;;7393758;19;20153;-76
2022/07/17 01:39:52;;;;;;;2.67;2.20;;;;;13.90;95011.00;;;;7393979;19;20132;-77
2022/07/17 01:42:15;;;;;;;2.53;2.00;;;;;13.80;95015.00;;;;7395016;19;20144;-76
2022/07/17 01:44:55;;;;;;;6.97;1.88;;;;;13.90;95012.00;;;;7388786;19;20621;-76
2022/07/17 01:47:30;;;;;;;4.63;2.10;;;;;14.00;95008.00;;;;7394875;19;20623;-76
2022/07/17 01:49:58;;;;;;;2.65;2.28;;;;;13.90;95006.00;;;;7393432;19;20594;-76
2022/07/17 01:52:32;;;;;;;2.20;2.00;;;;;13.80;95011.00;;;;7393567;19;20909;-76
2022/07/17 01:55:09;;;;;;;3.35;2.45;;;;;13.80;95006.00;;;;7392310;19;20156;-77
2022/07/17 01:57:36;;;;;;;2.40;2.20;;;;;13.80;95010.00;;;;7393124;19;20178;-76
2022/07/17 02:00:06;;;;;;;3.10;2.20;;;;;13.80;95010.00;;;;7392739;19;20133;-75
2022/07/17 02:02:41;;;;;;;4.63;2.70;;;;;13.80;95002.00;;;;7392956;19;20526;-76
2022/07/17 02:05:09;;;;;;;3.55;2.40;;;;;13.80;94998.00;;;;7393747;19;20184;-76
2022/07/17 02:07:39;;;;;;;3.00;2.40;;;;;13.70;94996.00;;;;7391625;19;20143;-76
2022/07/17 02:10:13;;;;;;;7.30;2.30;;;;;13.60;94996.00;;;;7392568;19;21092;-76
2022/07/17 02:12:43;;;;;;;3.60;2.25;;;;;13.50;95000.00;;;;7388568;19;20166;-77
2022/07/17 02:15:11;;;;;;;4.80;2.30;;;;;13.50;95000.00;;;;7389424;19;20148;-76
2022/07/17 02:17:45;;;;;;;4.50;2.33;;;;;13.50;94998.00;;;;7393491;19;20136;-75
2022/07/17 02:20:12;;;;;;;3.47;2.58;;;;;13.60;94995.00;;;;7393718;19;20131;-76
2022/07/17 02:22:40;;;;;;;5.75;2.30;;;;;13.60;94991.00;;;;7390985;19;20133;-76
2022/07/17 02:25:15;;;;;;;2.45;2.22;;;;;13.60;94992.00;;;;7393536;19;20141;-77
2022/07/17 02:27:43;;;;;;;3.55;2.40;;;;;13.50;94993.00;;;;7392310;19;20129;-77
2022/07/17 02:30:18;;;;;;;2.28;2.08;;;;;13.40;94989.00;;;;7392200;19;20484;-77
2022/07/17 02:32:52;;;;;;;2.30;2.10;;;;;13.50;94988.00;;;;7392996;19;20147;-76
2022/07/17 02:35:19;;;;;;;3.33;2.58;;;;;13.60;94987.00;;;;7392647;19;20129;-77
2022/07/17 02:37:46;;;;;;;2.50;2.30;;;;;13.70;94987.00;;;;7393747;19;20467;-77
2022/07/17 02:40:21;;;;;;;3.40;2.33;;;;;13.70;94987.00;;;;7391558;19;20156;-76
2022/07/17 02:42:48;;;;;;;3.33;2.28;;;;;13.80;94980.00;;;;7391193;19;20228;-77
2022/07/17 02:45:16;;;;;;;4.05;2.30;;;;;13.80;94980.00;;;;7386499;19;20179;-77
2022/07/17 02:47:50;;;;;;;3.10;2.13;;;;;13.70;94979.00;;;;7392157;19;20592;-76
2022/07/17 02:50:18;;;;;;;2.55;2.35;;;;;13.60;94977.00;;;;7393278;19;20726;-77
2022/07/17 02:52:45;;;;;;;2.25;2.05;;;;;13.60;94970.00;;;;7390910;19;20603;-77
2022/07/17 02:55:20;;;;;;;3.83;2.22;;;;;13.60;94973.00;;;;7389593;19;20152;-76
2022/07/17 02:57:47;;;;;;;3.28;2.30;;;;;13.50;94975.00;;;;7393565;19;20595;-77
2022/07/17 03:00:16;;;;;;;2.63;2.25;;;;;13.60;94970.00;;;;7391789;19;20204;-77
2022/07/17 03:02:51;;;;;;;2.20;2.00;;;;;13.50;94970.00;;;;7393036;19;20151;-77
2022/07/17 03:05:18;;;;;;;4.05;2.60;;;;;13.40;94964.00;;;;7390541;19;20169;-77
2022/07/17 03:07:46;;;;;;;2.33;2.13;;;;;13.50;94962.00;;;;7391645;19;20129;-77
2022/07/17 03:10:20;;;;;;;4.90;2.55;;;;;13.60;94965.00;;;;7392335;19;20189;-76
2022/07/17 03:12:47;;;;;;;2.90;2.38;;;;;13.50;94971.00;;;;7392006;19;20152;-77
2022/07/17 03:15:16;;;;;;;2.42;2.00;;;;;13.60;94961.00;;;;7388182;19;20572;-76
2022/07/17 03:17:51;;;;;;;3.13;2.00;;;;;13.50;94967.00;;;;7389906;19;20152;-75
2022/07/17 03:20:18;;;;;;;3.42;2.25;;;;;13.30;94971.00;;;;7392762;19;20596;-76
2022/07/17 03:22:46;;;;;;;3.67;2.13;;;;;13.40;94962.00;;;;7392003;19;20591;-76
2022/07/17 03:25:20;;;;;;;2.50;2.30;;;;;13.30;94969.00;;;;7397102;19;20612;-76
2022/07/17 03:27:47;;;;;;;3.55;2.10;;;;;13.20;94969.00;;;;7397934;19;20649;-76
2022/07/17 03:30:15;;;;;;;2.47;2.20;;;;;13.10;94964.00;;;;7397444;19;20153;-76
2022/07/17 03:32:49;;;;;;;6.18;2.05;;;;;13.20;94972.00;;;;7396743;19;20485;-76
2022/07/17 03:35:16;;;;;;;2.92;2.22;;;;;13.10;94958.00;;;;7398576;19;20216;-76
2022/07/17 03:37:44;;;;;;;4.50;2.22;;;;;13.30;94955.00;;;;7397423;19;20156;-76
2022/07/17 03:40:19;;;;;;;4.25;2.30;;;;;13.20;94956.00;;;;7399421;19;20145;-75
2022/07/17 03:42:46;;;;;;;5.38;2.30;;;;;13.30;94963.00;;;;7396237;19;20174;-75
2022/07/17 03:45:14;;;;;;;2.40;2.15;;;;;13.10;94967.00;;;;7391707;19;20178;-76
2022/07/17 03:47:48;;;;;;;5.60;2.38;;;;;13.00;94972.00;;;;7396052;19;20132;-76
2022/07/17 03:50:16;;;;;;;3.72;2.13;;;;;13.00;94966.00;;;;7399297;19;20136;-76
2022/07/17 03:52:44;;;;;;;3.65;2.50;;;;;13.10;94968.00;;;;7398616;19;20468;-76
2022/07/17 03:55:18;;;;;;;2.58;2.38;;;;;13.30;94967.00;;;;7395966;19;20611;-76
2022/07/17 03:57:45;;;;;;;3.17;2.45;;;;;13.30;94960.00;;;;7397823;19;20605;-76
2022/07/17 04:00:13;;;;;;;2.40;2.20;;;;;13.20;94969.00;;;;7396401;19;20686;-76
2022/07/17 04:02:48;;;;;;;3.45;2.58;;;;;13.30;94964.00;;;;7394336;19;20160;-76
2022/07/17 04:05:16;;;;;;;4.10;2.58;;;;;13.20;94958.00;;;;7400407;19;20476;-75
2022/07/17 04:07:44;;;;;;;3.55;2.47;;;;;13.40;94972.00;;;;7396514;19;20156;-76
2022/07/17 04:10:18;;;;;;;2.80;2.45;;;;;13.50;94963.00;;;;7399369;19;20724;-75
2022/07/17 04:12:45;;;;;;;2.55;2.10;;;;;13.30;94970.00;;;;7392286;19;20140;-75
2022/07/17 04:15:48;;;;;;;5.15;2.45;;;;;13.40;94964.00;;;;7397270;19;20132;-76
2022/07/17 04:18:07;;;;;;;3.90;2.67;;;;;13.60;94966.00;;;;7396469;19;20144;-75
2022/07/17 04:20:34;;;;;;;3.70;2.55;;;;;13.60;94961.00;;;;7395017;19;20595;-75
2022/07/17 04:23:02;;;;;;;3.85;2.60;;;;;13.60;94971.00;;;;7394354;19;20215;-76
2022/07/17 04:25:37;;;;;;;4.07;2.60;;;;;13.80;94973.00;;;;7395619;19;20220;-76
2022/07/17 04:28:05;;;;;;;4.13;2.60;;;;;13.70;94978.00;;;;7395747;19;20813;-75
2022/07/17 04:30:33;;;;;;;3.97;2.03;;;;;13.80;94978.00;;;;7393192;19;20208;-76
2022/07/17 04:33:07;;;;;;;6.45;2.55;;;;;13.80;94979.00;;;;7394568;19;20131;-76
2022/07/17 04:35:35;;;;;;;3.50;2.55;;;;;13.90;94976.00;;;;7398156;19;20587;-75
2022/07/17 04:38:04;;;;;;;2.90;2.50;;;;;14.00;94977.00;;;;7396500;19;20614;-75
2022/07/17 04:40:39;;;;;;;4.47;2.60;;;;;14.20;94970.00;;;;7393401;19;20623;-76
2022/07/17 04:43:07;;;;;;;2.53;2.33;;;;;14.10;94969.00;;;;7394458;19;20599;-75
2022/07/17 04:45:35;;;;;;;2.70;2.42;;;;;14.30;94964.00;;;;7394583;19;20176;-76
2022/07/17 04:48:09;;;;;;;2.75;2.33;;;;;14.30;94966.00;;;;7392356;19;20125;-76
2022/07/17 04:50:36;;;;;;;5.25;2.42;;;;;14.60;94972.00;;;;7394147;19;20167;-76
2022/07/17 04:53:04;;;;;;;3.33;2.53;;;;;14.80;94962.00;;;;7392495;19;20157;-76
2022/07/17 04:55:38;;;;;;;4.85;2.22;;;;;15.10;94967.00;;;;7394341;19;20209;-76
2022/07/17 04:58:06;;;;;;;2.72;2.20;;;;;15.10;94967.00;;;;7395222;19;20194;-76
2022/07/17 05:00:33;;;;;;;3.42;2.13;;;;;15.20;94977.00;;;;7393662;19;20153;-76
2022/07/17 05:03:08;;;;;;;3.65;1.95;;;;;15.40;94975.00;;;;7392948;19;20168;-76
2022/07/17 05:05:36;;;;;;;4.40;2.25;;;;;15.60;94976.00;;;;7396821;19;20138;-76
2022/07/17 05:08:03;;;;;;;4.43;2.10;;;;;15.70;94974.00;;;;7394627;19;20290;-75
2022/07/17 05:10:38;;;;;;;7.75;2.03;;;;;15.90;94982.00;;;;7392759;19;20228;-76
2022/07/17 05:13:07;;;;;;;2.83;2.17;;;;;16.00;94986.00;;;;7395210;19;20133;-77
2022/07/17 05:15:35;;;;;;;2.42;1.80;;;;;16.30;94981.00;;;;7393626;19;20148;-77
2022/07/17 05:18:09;;;;;;;5.60;2.13;;;;;16.50;94981.00;;;;7393246;19;20891;-76
2022/07/17 05:20:36;;;;;;;3.20;1.90;;;;;16.70;94970.00;;;;7392222;19;20152;-76
2022/07/17 05:23:04;;;;;;;4.68;2.10;;;;;16.70;94975.00;;;;7393135;19;20133;-77
2022/07/17 05:25:38;;;;;;;3.42;2.08;;;;;17.00;94977.00;;;;7393982;19;20491;-76
2022/07/17 05:28:05;;;;;;;2.63;2.15;;;;;17.20;94984.00;;;;7394616;19;21287;-77
2022/07/17 05:30:33;;;;;;;4.45;2.00;;;;;17.30;94981.00;;;;7392745;19;20141;-77
2022/07/17 05:33:07;;;;;;;2.33;2.00;;;;;17.50;94984.00;;;;7393976;19;21359;-76
2022/07/17 05:35:49;;;;;;;2.40;1.83;;;;;17.50;94980.00;;;;7392073;19;20563;-77
2022/07/17 05:38:30;;;;;;;2.40;1.90;;;;;17.60;94983.00;;;;7389718;19;20609;-78
2022/07/17 05:40:58;;;;;;;2.22;1.92;;;;;17.70;94985.00;;;;7393336;19;20125;-77
2022/07/17 05:43:45;;;;;;;3.30;2.22;;;;;17.90;94985.00;;;;7394539;19;20196;-77
2022/07/17 05:46:20;;;;;;;2.20;2.00;;;;;17.90;94987.00;;;;7393161;19;20614;-78
2022/07/17 05:48:54;;;;;;;5.55;2.20;;;;;18.10;94986.00;;;;7390096;19;20618;-77
2022/07/17 05:51:21;;;;;;;3.95;2.20;;;;;18.30;94974.00;;;;7393049;19;20160;-78
2022/07/17 05:53:51;;;;;;;2.35;2.05;;;;;18.40;94989.00;;;;7394938;19;20627;-77
2022/07/17 05:56:26;;;;;;;4.15;2.25;;;;;18.60;94989.00;;;;7390314;19;20145;-77
2022/07/17 05:58:53;;;;;;;4.63;1.80;;;;;18.70;94991.00;;;;7394523;19;20733;-77
2022/07/17 06:01:20;;;;;;;7.45;2.13;;;;;18.90;94990.00;;;;7392678;19;20606;-78
2022/07/17 06:03:55;;;;;;;3.33;2.03;;;;;19.10;94982.00;;;;7394622;19;20139;-77
2022/07/17 06:06:23;;;;;;;3.47;2.22;;;;;19.30;94986.00;;;;7391553;19;20129;-76
2022/07/17 06:08:50;;;;;;;3.83;2.30;;;;;19.40;94990.00;;;;7391910;19;20156;-77
2022/07/17 06:11:27;;;;;;;3.15;2.15;;;;;19.70;94990.00;;;;7392364;19;20145;-77
2022/07/17 06:14:03;;;;;;;2.03;1.65;;;;;19.90;94992.00;;;;7392690;19;20587;-76
2022/07/17 06:16:37;;;;;;;3.42;2.13;;;;;20.30;94998.00;;;;7391692;19;20216;-78
2022/07/17 06:19:04;;;;;;;2.92;2.13;;;;;20.40;94993.00;;;;7390972;19;20185;-77
2022/07/17 06:21:34;;;;;;;2.67;2.00;;;;;20.40;94993.00;;;;7392504;19;20144;-77
2022/07/17 06:24:09;;;;;;;2.60;1.92;;;;;20.80;94990.00;;;;7390731;19;20162;-78
2022/07/17 06:26:36;;;;;;;6.55;2.40;;;;;21.10;94991.00;;;;7390138;19;20156;-77
2022/07/17 06:29:04;;;;;;;2.03;1.85;;;;;21.00;94990.00;;;;7391877;19;20156;-77
2022/07/17 06:31:38;;;;;;;4.97;2.00;;;;;20.90;94995.00;;;;7393458;19;20598;-77
2022/07/17 06:34:05;;;;;;;2.58;1.92;;;;;21.10;94998.00;;;;7393710;19;20129;-77
2022/07/17 06:36:38;;;;;;;2.47;2.10;;;;;21.20;95003.00;;;;7393614;19;20460;-77
2022/07/17 06:39:17;;;;;;;2.10;1.90;;;;;21.30;95006.00;;;;7392736;19;20152;-78
2022/07/17 06:41:47;;;;;;;3.33;2.17;;;;;21.30;95001.00;;;;7389844;19;20612;-79
2022/07/17 06:44:35;;;;;;;2.47;2.08;;;;;21.50;95006.00;;;;7388228;19;20200;-77
2022/07/17 06:47:10;;;;;;;3.10;2.10;;;;;21.50;95006.00;;;;7392285;19;20124;-76
2022/07/17 06:49:44;;;;;;;2.65;2.28;;;;;21.40;95003.00;;;;7390027;19;20184;-76
2022/07/17 06:52:11;;;;;;;4.10;2.13;;;;;21.30;95008.00;;;;7391942;19;20152;-77
2022/07/17 06:54:39;;;;;;;3.45;2.35;;;;;21.50;95012.00;;;;7390072;19;20151;-77
2022/07/17 06:57:13;;;;;;;2.72;2.03;;;;;21.40;95020.00;;;;7390448;19;20149;-77
2022/07/17 06:59:40;;;;;;;3.53;2.10;;;;;21.70;95015.00;;;;7395511;19;20698;-77
2022/07/17 07:02:08;;;;;;;4.97;2.30;;;;;21.90;95016.00;;;;7399133;19;20125;-77
2022/07/17 07:04:43;;;;;;;3.17;1.98;;;;;22.10;95018.00;;;;7397564;19;20493;-77
2022/07/17 07:07:11;;;;;;;3.90;2.30;;;;;22.00;95015.00;;;;7399022;19;20163;-77
2022/07/17 07:09:38;;;;;;;7.85;2.22;;;;;22.00;95017.00;;;;7397221;19;20232;-77
2022/07/17 07:12:13;;;;;;;3.72;2.20;;;;;21.90;95028.00;;;;7396041;19;20173;-77
2022/07/17 07:14:40;;;;;;;2.30;2.10;;;;;22.00;95026.00;;;;7399307;19;20140;-78
2022/07/17 07:17:08;;;;;;;2.50;2.30;;;;;22.20;95031.00;;;;7398020;19;20145;-77
2022/07/17 07:19:42;;;;;;;3.78;2.08;;;;;22.30;95033.00;;;;7397183;19;20237;-77
2022/07/17 07:22:12;;;;;;;3.60;2.20;;;;;22.10;95030.00;;;;7396786;19;20157;-76
2022/07/17 07:24:40;;;;;;;4.10;2.42;;;;;22.10;95024.00;;;;7398273;19;20148;-76
2022/07/17 07:27:14;;;;;;;2.53;2.15;;;;;22.10;95027.00;;;;7395904;19;20133;-77
2022/07/17 07:29:42;;;;;;;6.65;2.30;;;;;22.20;95028.00;;;;7396797;19;20145;-79
2022/07/17 07:32:09;;;;;;;4.55;2.13;;;;;22.20;95033.00;;;;7398507;19;20148;-78
2022/07/17 07:34:44;;;;;;;2.85;2.05;;;;;22.40;95035.00;;;;7397809;19;20129;-78
2022/07/17 07:37:12;;;;;;;2.53;2.05;;;;;22.60;95023.00;;;;7397071;19;20159;-77
2022/07/17 07:39:40;;;;;;;4.15;2.10;;;;;22.60;95026.00;;;;7398623;19;20648;-77
2022/07/17 07:42:14;;;;;;;4.35;2.10;;;;;23.30;95025.00;;;;7398771;19;20475;-77
2022/07/17 07:44:54;;;;;;;2.30;2.10;;;;;23.60;95024.00;;;;7394032;19;20180;-76
2022/07/17 07:47:29;;;;;;;2.15;1.85;;;;;23.70;95025.00;;;;7396453;19;20129;-78
2022/07/17 07:50:00;;;;;;;2.17;1.98;;;;;24.10;95018.00;;;;7393209;19;20162;-78
2022/07/17 07:52:28;;;;;;;3.22;2.20;;;;;24.30;95023.00;;;;7393367;19;20248;-78
2022/07/17 07:55:05;;;;;;;1.90;1.80;;;;;23.90;95026.00;;;;7397795;19;20156;-76
2022/07/17 07:57:33;;;;;;;3.90;2.25;;;;;23.70;95026.00;;;;7397912;19;20124;-78
2022/07/17 08:00:01;;;;;;;4.10;2.20;;;;;23.50;95031.00;;;;7394347;19;21053;-78
2022/07/17 08:02:36;;;;;;;4.78;2.05;;;;;23.80;95034.00;;;;7398711;19;20140;-77
2022/07/17 08:05:04;;;;;;;2.63;2.00;;;;;24.30;95040.00;;;;7397283;19;20140;-79
2022/07/17 08:07:34;;;;;;;4.90;2.45;;;;;24.00;95038.00;;;;7397299;19;20137;-77
2022/07/17 08:10:08;;;;;;;2.20;2.00;;;;;24.50;95045.00;;;;7394724;19;20208;-76
2022/07/17 08:12:36;;;;;;;3.10;2.25;;;;;24.50;95040.00;;;;7396461;19;20172;-78
2022/07/17 08:15:15;;;;;;;3.50;2.10;;;;;24.70;95047.00;;;;7392773;19;20147;-76
2022/07/17 08:17:54;;;;;;;2.33;2.13;;;;;24.50;95045.00;;;;7395516;19;20152;-77
2022/07/17 08:20:24;;;;;;;3.28;2.10;;;;;24.80;95042.00;;;;7391918;19;20136;-78
2022/07/17 08:22:52;;;;;;;2.92;2.13;;;;;25.00;95044.00;;;;7395766;19;20137;-79
2022/07/17 08:25:32;;;;;;;3.58;1.90;;;;;24.80;95042.00;;;;7394542;19;20595;-74
2022/07/17 08:28:02;;;;;;;2.38;1.83;;;;;25.10;95053.00;;;;7396993;19;20135;-77
2022/07/17 08:30:36;;;;;;;4.78;1.95;;;;;24.80;95041.00;;;;7393506;19;20469;-78
2022/07/17 08:33:10;;;;;;;4.18;2.22;;;;;24.80;95048.00;;;;7391715;19;20125;-79
2022/07/17 08:35:44;;;;;;;2.85;2.08;;;;;25.00;95052.00;;;;7396360;19;20141;-78
2022/07/17 08:38:12;;;;;;;2.80;2.22;;;;;25.10;95058.00;;;;7395794;19;20622;-77
2022/07/17 08:40:43;;;;;;;2.97;1.90;;;;;25.20;95054.00;;;;7391442;19;20618;-78
2022/07/17 08:43:17;;;;;;;4.28;2.03;;;;;25.10;95055.00;;;;7390901;19;20149;-77
2022/07/17 08:45:53;;;;;;;3.00;1.92;;;;;25.20;95056.00;;;;7389734;19;20646;-77
2022/07/17 08:48:30;;;;;;;2.38;2.00;;;;;25.60;95064.00;;;;7387942;19;20129;-78
2022/07/17 08:51:00;;;;;;;5.13;1.92;;;;;25.60;95056.00;;;;7389967;19;20467;-77
2022/07/17 08:53:27;;;;;;;2.58;1.90;;;;;25.80;95063.00;;;;7390271;19;20146;-78
2022/07/17 08:56:01;;;;;;;6.13;1.90;;;;;25.90;95058.00;;;;7394019;19;20153;-77
2022/07/17 08:58:29;;;;;;;3.00;2.10;;;;;25.80;95062.00;;;;7394175;19;20583;-77
2022/07/17 09:00:57;;;;;;;2.80;2.10;;;;;26.10;95058.00;;;;7395363;19;20159;-78
2022/07/17 09:03:30;;;;;;;4.20;1.80;;;;;26.10;95056.00;;;;7393933;19;20565;-77
2022/07/17 09:05:58;;;;;;;3.10;1.90;;;;;26.30;95068.00;;;;7396040;19;20145;-79
2022/07/17 09:08:29;;;;;;;2.60;2.20;;;;;26.00;95070.00;;;;7391513;19;20144;-78
2022/07/17 09:11:07;;;;;;;2.05;1.83;;;;;26.00;95067.00;;;;7392546;19;20145;-77
2022/07/17 09:13:35;;;;;;;5.10;2.20;;;;;25.80;95064.00;;;;7396419;19;20157;-77
2022/07/17 09:16:11;;;;;;;2.05;1.85;;;;;25.60;95059.00;;;;7396443;19;20602;-78
2022/07/17 09:18:53;;;;;;;3.40;1.88;;;;;26.20;95057.00;;;;7393021;19;20145;-77
2022/07/17 09:21:23;;;;;;;1.90;1.70;;;;;26.20;95054.00;;;;7391781;19;20493;-78
2022/07/17 09:24:04;;;;;;;3.80;2.10;;;;;26.40;95065.00;;;;7395958;19;20128;-76
2022/07/17 09:26:34;;;;;;;4.57;1.90;;;;;26.90;95068.00;;;;7391915;19;20648;-78
2022/07/17 09:29:11;;;;;;;3.78;2.17;;;;;26.80;95066.00;;;;7392943;19;20740;-77
2022/07/17 09:31:39;;;;;;;3.83;1.95;;;;;26.60;95062.00;;;;7394921;19;20297;-76
2022/07/17 09:34:17;;;;;;;2.00;1.90;;;;;26.60;95061.00;;;;7395752;19;20133;-77
2022/07/17 09:37:01;;;;;;;2.47;1.90;;;;;26.60;95071.00;;;;7393685;19;20533;-78
2022/07/17 09:39:38;;;;;;;4.47;2.30;;;;;26.50;95063.00;;;;7394155;19;20128;-78
2022/07/17 09:42:32;;;;;;;2.10;1.90;;;;;26.50;95068.00;;;;7395850;19;20165;-77
2022/07/17 09:45:09;;;;;;;3.65;1.90;;;;;26.80;95071.00;;;;7392268;19;20627;-76
2022/07/17 09:47:49;;;;;;;5.80;2.25;;;;;27.00;95064.00;;;;7394264;19;20584;-78
2022/07/17 09:50:18;;;;;;;3.47;2.33;;;;;26.20;95063.00;;;;7392168;19;20613;-76
2022/07/17 09:52:55;;;;;;;2.40;2.10;;;;;26.90;95059.00;;;;7392610;19;20205;-79
2022/07/17 09:55:28;;;;;;;3.05;2.05;;;;;27.00;95064.00;;;;7394972;19;20467;-77
2022/07/17 09:58:18;;;;;;;3.95;1.85;;;;;27.10;95071.00;;;;7394176;19;20164;-77
2022/07/17 10:00:48;;;;;;;3.63;2.00;;;;;26.80;95075.00;;;;7390958;19;20156;-78
2022/07/17 10:03:22;;;;;;;2.10;1.90;;;;;27.30;95079.00;;;;7393049;19;20152;-78
2022/07/17 10:05:50;;;;;;;2.97;1.90;;;;;27.00;95068.00;;;;7393405;19;20480;-79
2022/07/17 10:08:19;;;;;;;4.03;2.05;;;;;27.10;95065.00;;;;7394552;19;20133;-76
2022/07/17 10:10:53;;;;;;;2.50;2.25;;;;;26.60;95061.00;;;;7390121;19;20140;-78
2022/07/17 10:13:22;;;;;;;2.15;1.90;;;;;26.40;95064.00;;;;7392027;19;20133;-77
2022/07/17 10:15:51;;;;;;;2.40;1.90;;;;;26.90;95057.00;;;;7394276;19;20507;-77
2022/07/17 10:18:42;;;;;;;3.13;2.17;;;;;27.20;95067.00;;;;7390931;19;20503;-77
2022/07/17 10:21:13;;;;;;;3.08;1.85;;;;;27.40;95051.00;;;;7392566;19;20129;-78
2022/07/17 10:23:53;;;;;;;2.47;1.95;;;;;27.20;95055.00;;;;7391031;19;20149;-78
2022/07/17 10:26:36;;;;;;;3.88;1.83;;;;;27.70;95042.00;;;;7393996;19;20592;-77
2022/07/17 10:29:38;;;;;;;4.68;1.95;;;;;27.50;95068.00;;;;7392713;19;20137;-76
2022/07/17 10:32:18;;;;;;;3.40;1.85;;;;;27.80;95057.00;;;;7389322;19;20144;-77
2022/07/17 10:35:02;;;;;;;2.22;1.77;;;;;28.10;95058.00;;;;7405606;19;20136;-77
2022/07/17 10:37:43;;;;;;;3.88;1.83;;;;;28.00;95055.00;;;;7406929;19;20148;-77
2022/07/17 10:40:23;;;;;;;3.90;1.88;;;;;27.70;95058.00;;;;7406589;19;20639;-77
2022/07/17 10:42:53;;;;;;;2.90;2.00;;;;;27.80;95060.00;;;;7404740;19;20152;-78
2022/07/17 10:45:39;;;;;;;2.03;1.80;;;;;28.30;95054.00;;;;7405473;19;20195;-78
2022/07/17 10:48:19;;;;;;;3.10;1.75;;;;;28.50;95046.00;;;;7407074;19;20191;-79
2022/07/17 10:50:56;;;;;;;2.33;1.80;;;;;28.50;95043.00;;;;7402537;19;20571;-77
2022/07/17 10:53:26;;;;;;;3.75;1.80;;;;;28.90;95046.00;;;;7403995;19;20155;-76
2022/07/17 10:56:07;;;;;;;2.20;2.00;;;;;28.00;95046.00;;;;7407447;19;20617;-78
2022/07/17 10:58:42;;;;;;;2.45;1.90;;;;;28.00;95054.00;;;;7404056;19;20470;-81
2022/07/17 11:01:21;;;;;;;3.85;1.98;;;;;27.90;95052.00;;;;7404368;19;20535;-78
2022/07/17 11:03:57;;;;;;;2.10;1.90;;;;;27.40;95056.00;;;;7406241;19;20160;-79
2022/07/17 11:06:36;;;;;;;3.05;1.90;;;;;27.30;95074.00;;;;7404173;19;20152;-78
2022/07/17 11:09:12;;;;;;;3.03;1.70;;;;;27.90;95061.00;;;;7405921;19;20591;-79
2022/07/17 11:11:49;;;;;;;3.05;2.10;;;;;28.20;95060.00;;;;7405423;19;20497;-78
2022/07/17 11:14:24;;;;;;;2.85;2.10;;;;;27.70;95064.00;;;;7406866;19;20192;-77
2022/07/17 11:17:03;;;;;;;5.93;1.92;;;;;28.50;95069.00;;;;7404880;19;20135;-78
2022/07/17 11:19:34;;;;;;;4.32;1.70;;;;;28.90;95054.00;;;;7404558;19;20226;-79
2022/07/17 11:22:11;;;;;;;2.60;1.70;;;;;28.80;95064.00;;;;7405426;19;20167;-77
2022/07/17 11:24:39;;;;;;;3.97;2.00;;;;;28.90;95063.00;;;;7404209;19;20156;-79
2022/07/17 11:27:09;;;;;;;2.67;1.80;;;;;28.80;95061.00;;;;7403361;19;20151;-78
2022/07/17 11:29:43;;;;;;;2.22;1.90;;;;;28.50;95062.00;;;;7406100;19;20132;-78
2022/07/17 11:32:12;;;;;;;2.65;2.17;;;;;29.00;95055.00;;;;7406428;19;20642;-79
2022/07/17 11:34:39;;;;;;;2.17;1.98;;;;;29.10;95058.00;;;;7402920;19;20132;-79
2022/07/17 11:37:14;;;;;;;3.25;1.73;;;;;29.50;95062.00;;;;7403645;19;20129;-78
2022/07/17 11:39:46;;;;;;;2.08;1.90;;;;;29.40;95059.00;;;;7406628;19;20603;-79
2022/07/17 11:42:22;;;;;;;1.80;1.70;;;;;29.60;95060.00;;;;7405294;19;20144;-78
2022/07/17 11:44:59;;;;;;;2.20;1.70;;;;;29.60;95060.00;;;;7396859;19;20512;-77
2022/07/17 11:47:40;;;;;;;2.80;1.80;;;;;29.50;95046.00;;;;7397445;19;20570;-77
2022/07/17 11:50:13;;;;;;;2.03;1.70;;;;;29.80;95045.00;;;;7397250;19;20152;-76
2022/07/17 11:52:49;;;;;;;2.83;1.80;;;;;30.00;95041.00;;;;7396281;19;20121;-77
2022/07/17 11:55:18;;;;;;;2.42;1.70;;;;;29.50;95041.00;;;;7396413;19;20148;-78
2022/07/17 11:57:50;;;;;;;1.75;1.65;;;;;29.30;95048.00;;;;7400436;19;20173;-79
2022/07/17 12:00:24;;;;;;;1.83;1.65;;;;;29.20;95053.00;;;;7393551;19;20159;-79
2022/07/17 12:03:04;;;;;;;2.35;1.70;;;;;29.20;95055.00;;;;7395412;19;20586;-78
2022/07/17 12:05:38;;;;;;;1.92;1.60;;;;;29.20;95061.00;;;;7398057;19;20165;-78
2022/07/17 12:08:08;;;;;;;1.92;1.67;;;;;28.90;95063.00;;;;7399401;19;20144;-77
2022/07/17 12:10:36;;;;;;;3.90;1.63;;;;;29.20;95055.00;;;;7393270;19;20133;-78
2022/07/17 12:13:11;;;;;;;6.93;1.58;;;;;29.90;95055.00;;;;7396332;19;20499;-77
2022/07/17 12:15:41;;;;;;;1.90;1.80;;;;;30.30;95051.00;;;;7398425;19;20137;-78
2022/07/17 12:18:24;;;;;;;1.60;1.50;;;;;30.10;95049.00;;;;7398034;19;20133;-77
2022/07/17 12:21:05;;;;;;;1.60;1.50;;;;;30.40;95052.00;;;;7394775;19;20500;-80
2022/07/17 12:23:38;;;;;;;2.03;1.60;;;;;30.10;95052.00;;;;7397442;19;20604;-78
2022/07/17 12:26:19;;;;;;;2.25;1.55;;;;;30.00;95056.00;;;;7397858;19;20615;-77
2022/07/17 12:28:47;;;;;;;3.78;1.80;;;;;29.80;95052.00;;;;7394343;19;20206;-76
2022/07/17 12:31:28;;;;;;;2.20;1.75;;;;;29.80;95058.00;;;;7393476;19;20153;-79
2022/07/17 12:34:02;;;;;;;2.10;1.55;;;;;30.00;95064.00;;;;7398470;19;20592;-77
2022/07/17 12:36:36;;;;;;;2.10;1.60;;;;;30.00;95061.00;;;;7394944;19;20125;-79
2022/07/17 12:39:04;;;;;;;3.17;1.92;;;;;29.50;95060.00;;;;7394303;19;20148;-76
2022/07/17 12:41:34;;;;;;;1.95;1.70;;;;;29.20;95057.00;;;;7396415;19;20152;-76
2022/07/17 12:44:12;;;;;;;2.53;1.50;;;;;29.10;95054.00;;;;7396364;19;20598;-79